Time,TemperatureF,DewpointF,PressureIn,WindDirection,WindDirectionDegrees,WindSpeedMPH,WindSpeedGustMPH,Humidity,HourlyPrecipIn,Conditions,Clouds,dailyrainin,SoftwareType,DateUTC
2014-01-21 02:26:00,6.0,-6.0,30.04,East,90,12.0,12.0,59,0.00,,,0.00,TxWx,2014-01-21 07:26:00,
2014-01-21 02:27:00,6.0,-6.0,30.04,East,90,10.0,11.0,59,0.00,,,0.00,TxWx,2014-01-21 07:27:00,
2014-01-21 02:28:00,5.0,-7.0,30.04,East,90,3.0,6.0,59,0.00,,,0.00,TxWx,2014-01-21 07:28:00,
2014-01-21 02:29:00,5.0,-7.0,30.04,East,90,10.0,13.0,59,0.00,,,0.00,TxWx,2014-01-21 07:29:00,
2014-01-21 02:30:00,5.0,-7.0,30.04,East,90,10.0,13.0,59,0.00,,,0.00,TxWx,2014-01-21 07:30:00,
2014-01-21 02:31:00,5.0,-7.0,30.04,East,90,11.0,12.0,59,0.00,,,0.00,TxWx,2014-01-21 07:31:00,
2014-01-21 02:32:00,5.0,-7.0,30.04,ESE,112,8.0,10.0,59,0.00,,,0.00,TxWx,2014-01-21 07:32:00,
2014-01-21 02:33:00,5.0,-7.0,30.04,ENE,67,10.0,10.0,59,0.00,,,0.00,TxWx,2014-01-21 07:33:00,
2014-01-21 02:34:00,5.0,-7.0,30.04,East,90,11.0,11.0,59,0.00,,,0.00,TxWx,2014-01-21 07:34:00,
2014-01-21 02:35:00,5.0,-8.0,30.04,East,90,11.0,12.0,58,0.00,,,0.00,TxWx,2014-01-21 07:35:00,
2014-01-21 02:36:00,5.0,-7.0,30.04,ENE,67,7.0,11.0,59,0.00,,,0.00,TxWx,2014-01-21 07:36:00,
2014-01-21 02:37:00,5.0,-8.0,30.04,East,90,10.0,15.0,58,0.00,,,0.00,TxWx,2014-01-21 07:37:00,
2014-01-21 02:38:00,5.0,-8.0,30.03,East,90,11.0,13.0,58,0.00,,,0.00,TxWx,2014-01-21 07:38:00,
2014-01-21 02:39:00,5.0,-8.0,30.03,East,90,5.0,8.0,58,0.00,,,0.00,TxWx,2014-01-21 07:39:00,
2014-01-21 02:40:00,5.0,-8.0,30.03,ENE,67,13.0,15.0,58,0.00,,,0.00,TxWx,2014-01-21 07:40:00,
2014-01-21 02:41:00,5.0,-8.0,30.03,ENE,67,14.0,14.0,58,0.00,,,0.00,TxWx,2014-01-21 07:41:00,
2014-01-21 02:42:00,5.0,-8.0,30.03,East,90,9.0,10.0,58,0.00,,,0.00,TxWx,2014-01-21 07:42:00,
2014-01-21 02:43:00,5.0,-7.0,30.03,East,90,10.0,11.0,59,0.00,,,0.00,TxWx,2014-01-21 07:43:00,
2014-01-21 02:44:00,5.0,-7.0,30.03,East,90,10.0,12.0,59,0.00,,,0.00,TxWx,2014-01-21 07:44:00,
2014-01-21 02:45:00,5.0,-7.0,30.03,East,90,10.0,12.0,59,0.00,,,0.00,TxWx,2014-01-21 07:45:00,
2014-01-21 02:46:00,5.0,-8.0,30.03,East,90,7.0,12.0,58,0.00,,,0.00,TxWx,2014-01-21 07:46:00,
2014-01-21 02:47:00,5.0,-7.0,30.03,NNE,22,8.0,10.0,59,0.00,,,0.00,TxWx,2014-01-21 07:47:00,
2014-01-21 02:49:00,5.0,-7.0,30.02,East,90,10.0,11.0,59,0.00,,,0.00,TxWx,2014-01-21 07:49:00,
2014-01-21 02:50:00,5.0,-7.0,30.02,East,90,10.0,12.0,59,0.00,,,0.00,TxWx,2014-01-21 07:50:00,
2014-01-21 02:51:00,5.0,-8.0,30.02,NE,45,8.0,9.0,58,0.00,,,0.00,TxWx,2014-01-21 07:51:00,
2014-01-21 02:52:00,6.0,-6.0,30.02,SE,135,6.0,10.0,59,0.00,,,0.00,TxWx,2014-01-21 07:52:00,
2014-01-21 02:53:00,6.0,-6.0,30.02,East,90,8.0,11.0,59,0.00,,,0.00,TxWx,2014-01-21 07:53:00,
2014-01-21 02:54:00,6.0,-6.0,30.02,East,90,8.0,9.0,59,0.00,,,0.00,TxWx,2014-01-21 07:54:00,
2014-01-21 02:55:00,6.0,-6.0,30.02,East,90,6.0,8.0,59,0.00,,,0.00,TxWx,2014-01-21 07:55:00,
2014-01-21 02:56:00,6.0,-6.0,30.02,East,90,7.0,8.0,59,0.00,,,0.00,TxWx,2014-01-21 07:56:00,
2014-01-21 02:57:00,6.0,-6.0,30.02,East,90,6.0,8.0,59,0.00,,,0.00,TxWx,2014-01-21 07:57:00,
2014-01-21 02:59:00,6.0,-7.0,30.02,ESE,112,5.0,10.0,58,0.00,,,0.00,TxWx,2014-01-21 07:59:00,
2014-01-21 03:01:00,6.0,-7.0,30.02,East,90,11.0,12.0,58,0.00,,,0.00,TxWx,2014-01-21 08:01:00,
2014-01-21 03:02:00,6.0,-7.0,30.02,ENE,67,11.0,11.0,58,0.00,,,0.00,TxWx,2014-01-21 08:02:00,
2014-01-21 03:03:00,5.0,-8.0,30.02,East,90,10.0,14.0,57,0.00,,,0.00,TxWx,2014-01-21 08:03:00,
2014-01-21 03:04:00,5.0,-8.0,30.02,ENE,67,11.0,11.0,57,0.00,,,0.00,TxWx,2014-01-21 08:04:00,
2014-01-21 03:05:00,5.0,-8.0,30.02,NE,45,7.0,11.0,57,0.00,,,0.00,TxWx,2014-01-21 08:05:00,
2014-01-21 03:06:00,5.0,-8.0,30.02,East,90,9.0,11.0,58,0.00,,,0.00,TxWx,2014-01-21 08:06:00,
2014-01-21 03:07:00,6.0,-7.0,30.02,NNE,22,6.0,9.0,58,0.00,,,0.00,TxWx,2014-01-21 08:07:00,
2014-01-21 03:08:00,6.0,-7.0,30.02,ENE,67,10.0,12.0,58,0.00,,,0.00,TxWx,2014-01-21 08:08:00,
2014-01-21 03:09:00,6.0,-7.0,30.02,East,90,13.0,15.0,58,0.00,,,0.00,TxWx,2014-01-21 08:09:00,
2014-01-21 03:11:00,5.0,-8.0,30.02,East,90,10.0,11.0,57,0.00,,,0.00,TxWx,2014-01-21 08:11:00,
2014-01-21 03:12:00,5.0,-8.0,30.02,East,90,13.0,14.0,57,0.00,,,0.00,TxWx,2014-01-21 08:12:00,
2014-01-21 03:17:00,6.0,-7.0,30.01,East,90,9.0,12.0,57,0.00,,,0.00,TxWx,2014-01-21 08:17:00,
2014-01-21 03:18:00,6.0,-7.0,30.01,East,90,9.0,10.0,58,0.00,,,0.00,TxWx,2014-01-21 08:18:00,
2014-01-21 03:19:00,6.0,-7.0,30.01,ENE,67,13.0,13.0,58,0.00,,,0.00,TxWx,2014-01-21 08:19:00,
2014-01-21 03:20:00,6.0,-7.0,30.01,East,90,10.0,10.0,57,0.00,,,0.00,TxWx,2014-01-21 08:20:00,
2014-01-21 03:21:00,6.0,-7.0,30.01,ENE,67,11.0,13.0,57,0.00,,,0.00,TxWx,2014-01-21 08:21:00,
2014-01-21 03:22:00,6.0,-7.0,30.01,ENE,67,10.0,13.0,57,0.00,,,0.00,TxWx,2014-01-21 08:22:00,
2014-01-21 03:23:00,6.0,-7.0,30.01,ESE,112,7.0,8.0,58,0.00,,,0.00,TxWx,2014-01-21 08:23:00,
2014-01-21 03:24:00,6.0,-7.0,30.01,East,90,11.0,12.0,58,0.00,,,0.00,TxWx,2014-01-21 08:24:00,
2014-01-21 03:25:00,6.0,-7.0,30.01,East,90,11.0,13.0,58,0.00,,,0.00,TxWx,2014-01-21 08:25:00,
2014-01-21 03:29:00,6.0,-7.0,30.01,ENE,67,10.0,13.0,58,0.00,,,0.00,TxWx,2014-01-21 08:29:00,
2014-01-21 03:30:00,6.0,-7.0,30.01,East,90,14.0,14.0,58,0.00,,,0.00,TxWx,2014-01-21 08:30:00,
2014-01-21 03:31:00,6.0,-7.0,30.01,East,90,11.0,11.0,57,0.00,,,0.00,TxWx,2014-01-21 08:31:00,
2014-01-21 03:37:00,6.0,-7.0,30.01,East,90,7.0,7.0,57,0.00,,,0.00,TxWx,2014-01-21 08:37:00,
2014-01-21 03:38:00,6.0,-7.0,30.01,ENE,67,8.0,11.0,57,0.00,,,0.00,TxWx,2014-01-21 08:38:00,
2014-01-21 03:39:00,6.0,-7.0,30.01,ESE,112,7.0,7.0,57,0.00,,,0.00,TxWx,2014-01-21 08:39:00,
2014-01-21 04:12:00,6.0,-8.0,29.99,ENE,67,6.0,8.0,56,0.00,,,0.00,TxWx,2014-01-21 09:12:00,
2014-01-21 04:16:00,6.0,-8.0,29.99,ENE,67,11.0,13.0,56,0.00,,,0.00,TxWx,2014-01-21 09:16:00,
2014-01-21 04:17:00,6.0,-8.0,29.99,ENE,67,9.0,11.0,56,0.00,,,0.00,TxWx,2014-01-21 09:17:00,
2014-01-21 04:19:00,6.0,-8.0,29.99,East,90,9.0,10.0,56,0.00,,,0.00,TxWx,2014-01-21 09:19:00,
2014-01-21 04:22:00,6.0,-7.0,29.98,SE,135,13.0,15.0,56,0.00,,,0.00,TxWx,2014-01-21 09:22:00,
2014-01-21 04:23:00,6.0,-8.0,29.98,East,90,10.0,11.0,55,0.00,,,0.00,TxWx,2014-01-21 09:23:00,
2014-01-21 04:25:00,6.0,-8.0,29.98,East,90,11.0,13.0,55,0.00,,,0.00,TxWx,2014-01-21 09:25:00,
2014-01-21 04:26:00,6.0,-8.0,29.98,East,90,12.0,14.0,56,0.00,,,0.00,TxWx,2014-01-21 09:26:00,
2014-01-21 04:28:00,6.0,-8.0,29.98,East,90,12.0,14.0,56,0.00,,,0.00,TxWx,2014-01-21 09:28:00,
2014-01-21 04:29:00,6.0,-8.0,29.98,ENE,67,6.0,10.0,56,0.00,,,0.00,TxWx,2014-01-21 09:29:00,
2014-01-21 04:30:00,6.0,-8.0,29.98,East,90,13.0,14.0,56,0.00,,,0.00,TxWx,2014-01-21 09:30:00,
2014-01-21 04:32:00,6.0,-8.0,29.98,ENE,67,8.0,9.0,56,0.00,,,0.00,TxWx,2014-01-21 09:32:00,
2014-01-21 04:33:00,6.0,-8.0,29.98,East,90,11.0,11.0,56,0.00,,,0.00,TxWx,2014-01-21 09:33:00,
2014-01-21 04:36:00,6.0,-8.0,29.98,ENE,67,8.0,10.0,55,0.00,,,0.00,TxWx,2014-01-21 09:36:00,
2014-01-21 04:38:00,6.0,-8.0,29.98,East,90,12.0,12.0,55,0.00,,,0.00,TxWx,2014-01-21 09:38:00,
2014-01-21 11:40:00,5.0,-8.0,30.03,East,90,11.0,13.0,58,0.00,,,0.00,TxWx,2014-01-21 16:40:00,
2014-01-21 11:45:00,5.0,-7.0,30.03,East,90,10.0,10.0,59,0.00,,,0.00,TxWx,2014-01-21 16:45:00,
2014-01-21 11:50:00,5.0,-7.0,30.02,East,90,13.0,14.0,59,0.00,,,0.00,TxWx,2014-01-21 16:50:00,
2014-01-21 11:55:00,6.0,-6.0,30.02,East,90,10.0,10.0,59,0.00,,,0.00,TxWx,2014-01-21 16:55:00,
2014-01-21 12:00:00,6.0,-7.0,30.02,NE,45,9.0,10.0,58,0.00,,,0.00,TxWx,2014-01-21 17:00:00,
2014-01-21 12:06:00,5.0,-8.0,30.02,East,90,10.0,11.0,57,0.00,,,0.00,TxWx,2014-01-21 17:06:00,
2014-01-21 12:11:00,6.0,-7.0,30.02,East,90,11.0,11.0,57,0.00,,,0.00,TxWx,2014-01-21 17:11:00,
2014-01-21 12:16:00,6.0,-7.0,30.01,East,90,10.0,12.0,57,0.00,,,0.00,TxWx,2014-01-21 17:16:00,
2014-01-21 12:21:00,6.0,-7.0,30.01,ENE,67,12.0,15.0,57,0.00,,,0.00,TxWx,2014-01-21 17:21:00,
2014-01-21 12:26:00,6.0,-7.0,30.01,East,90,7.0,9.0,58,0.00,,,0.00,TxWx,2014-01-21 17:26:00,
2014-01-21 12:31:00,6.0,-7.0,30.01,East,90,11.0,11.0,57,0.00,,,0.00,TxWx,2014-01-21 17:31:00,
2014-01-21 12:36:00,6.0,-7.0,30.01,East,90,6.0,6.0,57,0.00,,,0.00,TxWx,2014-01-21 17:36:00,
2014-01-21 12:41:00,6.0,-7.0,30.01,East,90,8.0,8.0,57,0.00,,,0.00,TxWx,2014-01-21 17:41:00,
2014-01-21 12:46:00,6.0,-7.0,30.00,East,90,9.0,13.0,57,0.00,,,0.00,TxWx,2014-01-21 17:46:00,
2014-01-21 12:51:00,6.0,-8.0,30.00,ENE,67,6.0,6.0,56,0.00,,,0.00,TxWx,2014-01-21 17:51:00,
2014-01-21 12:56:00,6.0,-8.0,30.00,ENE,67,6.0,8.0,56,0.00,,,0.00,TxWx,2014-01-21 17:56:00,
2014-01-21 13:01:00,6.0,-7.0,29.99,East,90,10.0,12.0,56,0.00,,,0.00,TxWx,2014-01-21 18:01:00,
2014-01-21 13:06:00,6.0,-7.0,29.99,East,90,6.0,8.0,56,0.00,,,0.00,TxWx,2014-01-21 18:06:00,
2014-01-21 13:11:00,6.0,-8.0,29.99,ESE,112,9.0,11.0,55,0.00,,,0.00,TxWx,2014-01-21 18:11:00,
2014-01-21 13:16:00,6.0,-8.0,29.99,East,90,7.0,11.0,56,0.00,,,0.00,TxWx,2014-01-21 18:16:00,
2014-01-21 13:21:00,6.0,-8.0,29.98,East,90,7.0,10.0,56,0.00,,,0.00,TxWx,2014-01-21 18:21:00,
2014-01-21 13:27:00,6.0,-8.0,29.98,SE,135,6.0,13.0,56,0.00,,,0.00,TxWx,2014-01-21 18:27:00,
2014-01-21 13:32:00,6.0,-8.0,29.98,ENE,67,10.0,12.0,56,0.00,,,0.00,TxWx,2014-01-21 18:32:00,
2014-01-21 13:37:00,6.0,-8.0,29.98,East,90,10.0,12.0,55,0.00,,,0.00,TxWx,2014-01-21 18:37:00,
2014-01-21 13:42:00,6.0,-8.0,29.97,East,90,8.0,10.0,55,0.00,,,0.00,TxWx,2014-01-21 18:42:00,
2014-01-21 13:47:00,6.0,-8.0,29.97,ENE,67,9.0,11.0,55,0.00,,,0.00,TxWx,2014-01-21 18:47:00,
2014-01-21 13:52:00,6.0,-8.0,29.96,East,90,10.0,15.0,55,0.00,,,0.00,TxWx,2014-01-21 18:52:00,
2014-01-21 13:57:00,6.0,-8.0,29.96,SSE,157,7.0,8.0,56,0.00,,,0.00,TxWx,2014-01-21 18:57:00,
2014-01-21 14:02:00,6.0,-8.0,29.96,ENE,67,7.0,13.0,55,0.00,,,0.00,TxWx,2014-01-21 19:02:00,
2014-01-21 14:07:00,5.0,-9.0,29.96,East,90,8.0,8.0,55,0.00,,,0.00,TxWx,2014-01-21 19:07:00,
2014-01-21 14:12:00,5.0,-8.0,29.96,East,90,12.0,12.0,56,0.00,,,0.00,TxWx,2014-01-21 19:12:00,
2014-01-21 14:17:00,5.0,-8.0,29.95,ENE,67,11.0,16.0,56,0.00,,,0.00,TxWx,2014-01-21 19:17:00,
2014-01-21 14:22:00,5.0,-8.0,29.95,East,90,14.0,17.0,56,0.00,,,0.00,TxWx,2014-01-21 19:22:00,
2014-01-21 14:27:00,5.0,-8.0,29.94,East,90,13.0,17.0,57,0.00,,,0.00,TxWx,2014-01-21 19:27:00,
2014-01-21 14:32:00,5.0,-8.0,29.94,ESE,112,12.0,12.0,58,0.00,,,0.00,TxWx,2014-01-21 19:32:00,
2014-01-21 14:37:00,5.0,-8.0,29.94,SE,135,9.0,10.0,58,0.00,,,0.00,TxWx,2014-01-21 19:37:00,
2014-01-21 14:42:00,5.0,-7.0,29.93,ENE,67,6.0,8.0,59,0.00,,,0.00,TxWx,2014-01-21 19:42:00,
2014-01-21 14:47:00,5.0,-8.0,29.93,ENE,67,10.0,12.0,58,0.00,,,0.00,TxWx,2014-01-21 19:47:00,
2014-01-21 14:53:00,5.0,-7.0,29.93,East,90,6.0,8.0,59,0.00,,,0.00,TxWx,2014-01-21 19:53:00,
2014-01-21 14:57:00,5.0,-7.0,29.93,ENE,67,8.0,9.0,59,0.00,,,0.00,TxWx,2014-01-21 19:57:00,
2014-01-21 15:00:00,0.0,-12.0,29.91,East,90,10.0,10.0,60,0.00,,,0.00,TxWx,2014-01-21 20:00:00,
2014-01-21 15:01:00,0.0,-12.0,29.91,East,90,8.0,11.0,60,0.00,,,0.00,TxWx,2014-01-21 20:01:00,
2014-01-21 15:02:00,5.0,-7.0,29.93,North,0,4.0,4.0,60,0.00,,,0.00,TxWx,2014-01-21 20:02:00,
2014-01-21 15:03:00,0.0,-12.0,29.91,NNE,22,8.0,13.0,60,0.00,,,0.00,TxWx,2014-01-21 20:03:00,
2014-01-21 15:04:00,0.0,-12.0,29.91,East,90,8.0,11.0,60,0.00,,,0.00,TxWx,2014-01-21 20:04:00,
2014-01-21 15:05:00,0.0,-12.0,29.91,ENE,67,9.0,10.0,60,0.00,,,0.00,TxWx,2014-01-21 20:05:00,
2014-01-21 15:06:00,0.0,-12.0,29.91,ENE,67,16.0,18.0,60,0.00,,,0.00,TxWx,2014-01-21 20:06:00,
2014-01-21 15:07:00,5.0,-7.0,29.93,ENE,67,11.0,12.0,59,0.00,,,0.00,TxWx,2014-01-21 20:07:00,
2014-01-21 15:08:00,0.0,-11.0,29.91,ENE,67,11.0,12.0,61,0.00,,,0.00,TxWx,2014-01-21 20:08:00,
2014-01-21 15:09:00,0.0,-11.0,29.91,East,90,11.0,17.0,61,0.00,,,0.00,TxWx,2014-01-21 20:09:00,
2014-01-21 15:10:00,0.0,-11.0,29.91,East,90,10.0,10.0,61,0.00,,,0.00,TxWx,2014-01-21 20:10:00,
2014-01-21 15:11:00,0.0,-11.0,29.91,East,90,10.0,13.0,61,0.00,,,0.00,TxWx,2014-01-21 20:11:00,
2014-01-21 15:12:00,5.0,-7.0,29.93,East,90,13.0,17.0,59,0.00,,,0.00,TxWx,2014-01-21 20:12:00,
2014-01-21 15:13:00,0.0,-11.0,29.91,ENE,67,13.0,13.0,61,0.00,,,0.00,TxWx,2014-01-21 20:13:00,
2014-01-21 15:14:00,0.0,-11.0,29.91,ENE,67,6.0,10.0,61,0.00,,,0.00,TxWx,2014-01-21 20:14:00,
2014-01-21 15:15:00,0.0,-11.0,29.91,East,90,5.0,8.0,62,0.00,,,0.00,TxWx,2014-01-21 20:15:00,
2014-01-21 15:16:00,0.0,-11.0,29.91,East,90,8.0,14.0,62,0.00,,,0.00,TxWx,2014-01-21 20:16:00,
2014-01-21 15:17:00,0.0,-11.0,29.90,East,90,14.0,14.0,62,0.00,,,0.00,TxWx,2014-01-21 20:17:00,
2014-01-21 15:18:00,5.0,-7.0,29.93,ENE,67,12.0,16.0,59,0.00,,,0.00,TxWx,2014-01-21 20:18:00,
2014-01-21 15:19:00,0.0,-11.0,29.90,ESE,112,7.0,12.0,62,0.00,,,0.00,TxWx,2014-01-21 20:19:00,
2014-01-21 15:20:00,0.0,-11.0,29.90,ENE,67,13.0,16.0,62,0.00,,,0.00,TxWx,2014-01-21 20:20:00,
2014-01-21 15:21:00,0.0,-11.0,29.90,ESE,112,14.0,15.0,62,0.00,,,0.00,TxWx,2014-01-21 20:21:00,
2014-01-21 15:22:00,0.0,-11.0,29.90,ENE,67,11.0,13.0,63,0.00,,,0.00,TxWx,2014-01-21 20:22:00,
2014-01-21 15:23:00,5.0,-7.0,29.93,ESE,112,8.0,11.0,59,0.00,,,0.00,TxWx,2014-01-21 20:23:00,
2014-01-21 15:24:00,0.0,-11.0,29.90,East,90,14.0,14.0,63,0.00,,,0.00,TxWx,2014-01-21 20:24:00,
2014-01-21 15:25:00,0.0,-11.0,29.90,ENE,67,13.0,13.0,63,0.00,,,0.00,TxWx,2014-01-21 20:25:00,
2014-01-21 15:28:00,5.0,-8.0,29.93,East,90,17.0,21.0,57,0.00,,,0.00,TxWx,2014-01-21 20:28:00,
2014-01-21 15:29:00,-1.0,-11.0,29.89,ENE,67,7.0,13.0,64,0.00,,,0.00,TxWx,2014-01-21 20:29:00,
2014-01-21 15:32:00,-1.0,-11.0,29.89,ENE,67,8.0,13.0,64,0.00,,,0.00,TxWx,2014-01-21 20:32:00,
2014-01-21 15:33:00,5.0,-7.0,29.93,SE,135,6.0,11.0,59,0.00,,,0.00,TxWx,2014-01-21 20:33:00,
2014-01-21 15:37:00,-1.0,-11.0,29.89,ESE,112,12.0,18.0,64,0.00,,,0.00,TxWx,2014-01-21 20:37:00,
2014-01-21 15:38:00,5.0,-8.0,29.93,ENE,67,11.0,11.0,58,0.00,,,0.00,TxWx,2014-01-21 20:38:00,
2014-01-21 15:41:00,-1.0,-11.0,29.88,ENE,67,14.0,14.0,65,0.00,,,0.00,TxWx,2014-01-21 20:41:00,
2014-01-21 15:43:00,5.0,-8.0,29.94,East,90,11.0,14.0,56,0.00,,,0.00,TxWx,2014-01-21 20:43:00,
2014-01-21 15:45:00,-1.0,-11.0,29.88,NNE,22,10.0,15.0,65,0.00,,,0.00,TxWx,2014-01-21 20:45:00,
2014-01-21 15:48:00,5.0,-9.0,29.93,ENE,67,11.0,15.0,54,0.00,,,0.00,TxWx,2014-01-21 20:48:00,
2014-01-21 15:53:00,5.0,-9.0,29.94,East,90,13.0,14.0,55,0.00,,,0.00,TxWx,2014-01-21 20:53:00,
2014-01-21 15:58:00,5.0,-9.0,29.95,NE,45,10.0,11.0,54,0.00,,,0.00,TxWx,2014-01-21 20:58:00,
2014-01-21 16:01:00,-1.0,-10.0,29.88,ESE,112,14.0,19.0,67,0.00,,,0.00,TxWx,2014-01-21 21:01:00,
2014-01-21 16:03:00,4.0,-10.0,29.95,NE,45,13.0,14.0,54,0.00,,,0.00,TxWx,2014-01-21 21:03:00,
2014-01-21 16:04:00,-1.0,-10.0,29.88,NE,45,6.0,11.0,67,0.00,,,0.00,TxWx,2014-01-21 21:04:00,
2014-01-21 16:05:00,-1.0,-10.0,29.88,ENE,67,14.0,19.0,67,0.00,,,0.00,TxWx,2014-01-21 21:05:00,
2014-01-21 16:06:00,-1.0,-10.0,29.89,NE,45,6.0,11.0,67,0.00,,,0.00,TxWx,2014-01-21 21:06:00,
2014-01-21 16:07:00,-1.0,-10.0,29.89,ENE,67,12.0,14.0,67,0.00,,,0.00,TxWx,2014-01-21 21:07:00,
2014-01-21 16:08:00,4.0,-10.0,29.95,South,180,6.0,8.0,54,0.00,,,0.00,TxWx,2014-01-21 21:08:00,
2014-01-21 16:10:00,-1.0,-10.0,29.89,East,90,12.0,14.0,68,0.00,,,0.00,TxWx,2014-01-21 21:10:00,
2014-01-21 16:11:00,-1.0,-10.0,29.89,ENE,67,10.0,13.0,68,0.00,,,0.00,TxWx,2014-01-21 21:11:00,
2014-01-21 16:12:00,-1.0,-10.0,29.90,East,90,11.0,13.0,68,0.00,,,0.00,TxWx,2014-01-21 21:12:00,
2014-01-21 16:13:00,4.0,-10.0,29.95,ENE,67,12.0,15.0,54,0.00,,,0.00,TxWx,2014-01-21 21:13:00,
2014-01-21 16:14:00,-1.0,-10.0,29.90,East,90,13.0,15.0,68,0.00,,,0.00,TxWx,2014-01-21 21:14:00,
2014-01-21 16:16:00,-2.0,-11.0,29.90,ENE,67,10.0,12.0,68,0.00,,,0.00,TxWx,2014-01-21 21:16:00,
2014-01-21 16:18:00,4.0,-10.0,29.95,East,90,5.0,8.0,55,0.00,,,0.00,TxWx,2014-01-21 21:18:00,
2014-01-21 16:23:00,4.0,-10.0,29.95,East,90,8.0,12.0,55,0.00,,,0.00,TxWx,2014-01-21 21:23:00,
2014-01-21 16:29:00,4.0,-9.0,29.95,ENE,67,11.0,13.0,56,0.00,,,0.00,TxWx,2014-01-21 21:29:00,
2014-01-21 16:33:00,4.0,-9.0,29.95,East,90,7.0,12.0,56,0.00,,,0.00,TxWx,2014-01-21 21:33:00,
2014-01-21 16:39:00,4.0,-9.0,29.95,SE,135,10.0,13.0,56,0.00,,,0.00,TxWx,2014-01-21 21:39:00,
2014-01-21 16:44:00,4.0,-9.0,29.95,ENE,67,11.0,13.0,57,0.00,,,0.00,TxWx,2014-01-21 21:44:00,
2014-01-21 16:49:00,4.0,-9.0,29.95,ENE,67,10.0,13.0,58,0.00,,,0.00,TxWx,2014-01-21 21:49:00,
2014-01-21 16:54:00,5.0,-8.0,29.95,ENE,67,8.0,12.0,58,0.00,,,0.00,TxWx,2014-01-21 21:54:00,
2014-01-21 16:59:00,4.0,-8.0,29.95,ENE,67,10.0,11.0,58,0.00,,,0.00,TxWx,2014-01-21 21:59:00,
2014-01-21 17:04:00,4.0,-8.0,29.95,ENE,67,11.0,12.0,58,0.00,,,0.00,TxWx,2014-01-21 22:04:00,
2014-01-21 17:09:00,5.0,-7.0,29.95,East,90,8.0,11.0,59,0.00,,,0.00,TxWx,2014-01-21 22:09:00,
2014-01-21 17:14:00,5.0,-7.0,29.95,ENE,67,7.0,7.0,59,0.00,,,0.00,TxWx,2014-01-21 22:14:00,
2014-01-21 17:19:00,5.0,-7.0,29.95,East,90,10.0,11.0,59,0.00,,,0.00,TxWx,2014-01-21 22:19:00,
2014-01-21 17:24:00,5.0,-8.0,29.96,ENE,67,11.0,12.0,58,0.00,,,0.00,TxWx,2014-01-21 22:24:00,
2014-01-21 17:29:00,5.0,-8.0,29.96,East,90,11.0,17.0,57,0.00,,,0.00,TxWx,2014-01-21 22:29:00,
2014-01-21 17:34:00,4.0,-9.0,29.96,NE,45,8.0,10.0,56,0.00,,,0.00,TxWx,2014-01-21 22:34:00,
2014-01-21 17:39:00,4.0,-10.0,29.95,East,90,8.0,10.0,53,0.00,,,0.00,TxWx,2014-01-21 22:39:00,
2014-01-21 17:44:00,4.0,-11.0,29.95,ENE,67,6.0,9.0,52,0.00,,,0.00,TxWx,2014-01-21 22:44:00,
2014-01-21 17:50:00,4.0,-11.0,29.96,SE,135,7.0,13.0,50,0.00,,,0.00,TxWx,2014-01-21 22:50:00,
2014-01-21 17:55:00,4.0,-12.0,29.96,ENE,67,9.0,9.0,50,0.00,,,0.00,TxWx,2014-01-21 22:55:00,
2014-01-21 18:00:00,4.0,-11.0,29.95,ENE,67,8.0,8.0,50,0.00,,,0.00,TxWx,2014-01-21 23:00:00,
2014-01-21 18:05:00,4.0,-11.0,29.95,ENE,67,6.0,6.0,51,0.00,,,0.00,TxWx,2014-01-21 23:05:00,
2014-01-21 18:10:00,4.0,-11.0,29.96,East,90,11.0,12.0,52,0.00,,,0.00,TxWx,2014-01-21 23:10:00,
2014-01-21 18:15:00,4.0,-11.0,29.95,NE,45,13.0,16.0,52,0.00,,,0.00,TxWx,2014-01-21 23:15:00,
2014-01-21 18:20:00,4.0,-11.0,29.96,NE,45,8.0,8.0,53,0.00,,,0.00,TxWx,2014-01-21 23:20:00,
2014-01-21 18:25:00,4.0,-11.0,29.96,NNE,22,3.0,5.0,53,0.00,,,0.00,TxWx,2014-01-21 23:25:00,
2014-01-21 18:30:00,4.0,-11.0,29.96,ENE,67,16.0,16.0,52,0.00,,,0.00,TxWx,2014-01-21 23:30:00,
2014-01-21 18:35:00,4.0,-11.0,29.97,East,90,5.0,6.0,52,0.00,,,0.00,TxWx,2014-01-21 23:35:00,
2014-01-21 18:40:00,4.0,-11.0,29.96,East,90,7.0,10.0,52,0.00,,,0.00,TxWx,2014-01-21 23:40:00,
2014-01-21 18:45:00,4.0,-11.0,29.96,NE,45,6.0,6.0,52,0.00,,,0.00,TxWx,2014-01-21 23:45:00,
2014-01-21 18:50:00,4.0,-11.0,29.96,ENE,67,8.0,12.0,51,0.00,,,0.00,TxWx,2014-01-21 23:50:00,
2014-01-21 18:55:00,4.0,-11.0,29.96,NNE,22,8.0,8.0,50,0.00,,,0.00,TxWx,2014-01-21 23:55:00,
2014-01-21 19:01:00,4.0,-12.0,29.96,ENE,67,10.0,16.0,50,0.00,,,0.00,TxWx,2014-01-22 00:01:00,
2014-01-21 19:05:00,-5.0,-14.0,29.88,NNE,22,9.0,10.0,66,0.00,,,0.00,TxWx,2014-01-22 00:05:00,
2014-01-21 19:06:00,4.0,-12.0,29.96,ENE,67,9.0,10.0,50,0.00,,,0.00,TxWx,2014-01-22 00:06:00,
2014-01-21 19:07:00,-5.0,-14.0,29.88,ENE,67,13.0,18.0,66,0.00,,,0.00,TxWx,2014-01-22 00:07:00,
2014-01-21 19:11:00,4.0,-11.0,29.96,East,90,8.0,8.0,51,0.00,,,0.00,TxWx,2014-01-22 00:11:00,
2014-01-21 19:14:00,-5.0,-14.0,29.87,East,90,13.0,13.0,66,0.00,,,0.00,TxWx,2014-01-22 00:14:00,
2014-01-21 19:16:00,4.0,-12.0,29.97,ENE,67,11.0,18.0,49,0.00,,,0.00,TxWx,2014-01-22 00:16:00,
2014-01-21 19:17:00,-5.0,-15.0,29.88,SE,135,9.0,12.0,66,0.00,,,0.00,TxWx,2014-01-22 00:17:00,
2014-01-21 19:18:00,-5.0,-15.0,29.88,SE,135,7.0,8.0,66,0.00,,,0.00,TxWx,2014-01-22 00:18:00,
2014-01-21 19:20:00,-5.0,-15.0,29.87,East,90,8.0,9.0,66,0.00,,,0.00,TxWx,2014-01-22 00:20:00,
2014-01-21 19:21:00,4.0,-12.0,29.97,ESE,112,9.0,11.0,49,0.00,,,0.00,TxWx,2014-01-22 00:21:00,
2014-01-21 19:22:00,-5.0,-14.0,29.88,East,90,12.0,12.0,66,0.00,,,0.00,TxWx,2014-01-22 00:22:00,
2014-01-21 19:23:00,-5.0,-14.0,29.88,East,90,14.0,16.0,66,0.00,,,0.00,TxWx,2014-01-22 00:23:00,
2014-01-21 19:25:00,-5.0,-14.0,29.88,East,90,11.0,14.0,66,0.00,,,0.00,TxWx,2014-01-22 00:25:00,
2014-01-21 19:26:00,4.0,-12.0,29.97,ENE,67,12.0,16.0,49,0.00,,,0.00,TxWx,2014-01-22 00:26:00,
2014-01-21 19:31:00,4.0,-12.0,29.96,ENE,67,5.0,6.0,49,0.00,,,0.00,TxWx,2014-01-22 00:31:00,
2014-01-21 19:36:00,4.0,-12.0,29.97,East,90,6.0,7.0,50,0.00,,,0.00,TxWx,2014-01-22 00:36:00,
2014-01-21 19:41:00,4.0,-11.0,29.96,East,90,5.0,7.0,50,0.00,,,0.00,TxWx,2014-01-22 00:41:00,
2014-01-21 19:46:00,4.0,-11.0,29.97,ENE,67,11.0,11.0,50,0.00,,,0.00,TxWx,2014-01-22 00:46:00,
2014-01-21 19:51:00,4.0,-11.0,29.97,ENE,67,14.0,14.0,50,0.00,,,0.00,TxWx,2014-01-22 00:51:00,
2014-01-21 19:56:00,4.0,-11.0,29.96,ENE,67,5.0,8.0,50,0.00,,,0.00,TxWx,2014-01-22 00:56:00,
2014-01-21 20:01:00,4.0,-11.0,29.96,ENE,67,9.0,11.0,50,0.00,,,0.00,TxWx,2014-01-22 01:01:00,
2014-01-21 20:06:00,4.0,-11.0,29.97,ENE,67,8.0,8.0,51,0.00,,,0.00,TxWx,2014-01-22 01:06:00,
2014-01-21 20:12:00,3.0,-12.0,29.97,ESE,112,10.0,10.0,51,0.00,,,0.00,TxWx,2014-01-22 01:12:00,
2014-01-21 20:17:00,3.0,-12.0,29.96,ENE,67,9.0,10.0,51,0.00,,,0.00,TxWx,2014-01-22 01:17:00,
2014-01-21 20:22:00,3.0,-12.0,29.96,East,90,9.0,14.0,51,0.00,,,0.00,TxWx,2014-01-22 01:22:00,
2014-01-21 20:27:00,3.0,-12.0,29.97,ENE,67,6.0,6.0,52,0.00,,,0.00,TxWx,2014-01-22 01:27:00,
2014-01-21 20:32:00,3.0,-12.0,29.97,NNE,22,10.0,11.0,52,0.00,,,0.00,TxWx,2014-01-22 01:32:00,
2014-01-21 20:37:00,3.0,-12.0,29.97,NNE,22,8.0,13.0,52,0.00,,,0.00,TxWx,2014-01-22 01:37:00,
2014-01-21 20:42:00,3.0,-11.0,29.97,NNE,22,13.0,13.0,53,0.00,,,0.00,TxWx,2014-01-22 01:42:00,
2014-01-21 20:47:00,3.0,-11.0,29.97,ENE,67,10.0,10.0,53,0.00,,,0.00,TxWx,2014-01-22 01:47:00,
2014-01-21 20:52:00,3.0,-12.0,29.97,ENE,67,11.0,11.0,52,0.00,,,0.00,TxWx,2014-01-22 01:52:00,
2014-01-21 20:57:00,3.0,-12.0,29.96,ENE,67,16.0,18.0,52,0.00,,,0.00,TxWx,2014-01-22 01:57:00,
2014-01-21 21:02:00,3.0,-11.0,29.96,ENE,67,12.0,14.0,53,0.00,,,0.00,TxWx,2014-01-22 02:02:00,
2014-01-21 21:07:00,3.0,-11.0,29.96,ENE,67,10.0,13.0,53,0.00,,,0.00,TxWx,2014-01-22 02:07:00,
2014-01-21 21:13:00,3.0,-11.0,29.97,ENE,67,12.0,14.0,53,0.00,,,0.00,TxWx,2014-01-22 02:13:00,
2014-01-21 21:18:00,3.0,-11.0,29.97,NE,45,13.0,18.0,53,0.00,,,0.00,TxWx,2014-01-22 02:18:00,
2014-01-21 21:23:00,3.0,-11.0,29.97,NE,45,16.0,16.0,53,0.00,,,0.00,TxWx,2014-01-22 02:23:00,
2014-01-21 21:28:00,3.0,-11.0,29.96,NE,45,11.0,11.0,53,0.00,,,0.00,TxWx,2014-01-22 02:28:00,
2014-01-21 21:33:00,3.0,-11.0,29.97,NE,45,5.0,10.0,54,0.00,,,0.00,TxWx,2014-01-22 02:33:00,
2014-01-21 21:38:00,3.0,-11.0,29.97,East,90,10.0,20.0,54,0.00,,,0.00,TxWx,2014-01-22 02:38:00,
2014-01-21 21:43:00,3.0,-11.0,29.97,East,90,9.0,14.0,54,0.00,,,0.00,TxWx,2014-01-22 02:43:00,
2014-01-21 21:48:00,2.0,-12.0,29.96,NE,45,16.0,16.0,54,0.00,,,0.00,TxWx,2014-01-22 02:48:00,
2014-01-21 21:53:00,2.0,-12.0,29.96,ENE,67,17.0,17.0,54,0.00,,,0.00,TxWx,2014-01-22 02:53:00,
2014-01-21 21:58:00,2.0,-12.0,29.96,East,90,16.0,16.0,54,0.00,,,0.00,TxWx,2014-01-22 02:58:00,
2014-01-21 22:04:00,2.0,-12.0,29.96,East,90,5.0,8.0,54,0.00,,,0.00,TxWx,2014-01-22 03:04:00,
2014-01-21 22:09:00,2.0,-12.0,29.96,ENE,67,10.0,11.0,54,0.00,,,0.00,TxWx,2014-01-22 03:09:00,
2014-01-21 22:14:00,2.0,-12.0,29.96,ENE,67,9.0,10.0,54,0.00,,,0.00,TxWx,2014-01-22 03:14:00,
2014-01-21 22:19:00,2.0,-12.0,29.95,ENE,67,12.0,17.0,54,0.00,,,0.00,TxWx,2014-01-22 03:19:00,
2014-01-21 22:24:00,2.0,-12.0,29.96,East,90,9.0,10.0,55,0.00,,,0.00,TxWx,2014-01-22 03:24:00,
2014-01-21 22:29:00,2.0,-12.0,29.95,East,90,16.0,16.0,55,0.00,,,0.00,TxWx,2014-01-22 03:29:00,
2014-01-21 22:34:00,2.0,-11.0,29.95,East,90,18.0,19.0,55,0.00,,,0.00,TxWx,2014-01-22 03:34:00,
2014-01-21 22:39:00,2.0,-11.0,29.95,ENE,67,9.0,16.0,55,0.00,,,0.00,TxWx,2014-01-22 03:39:00,
2014-01-21 22:45:00,2.0,-11.0,29.95,East,90,14.0,14.0,56,0.00,,,0.00,TxWx,2014-01-22 03:45:00,
2014-01-21 22:50:00,2.0,-11.0,29.94,ENE,67,10.0,13.0,56,0.00,,,0.00,TxWx,2014-01-22 03:50:00,
2014-01-21 22:55:00,2.0,-11.0,29.94,ENE,67,8.0,11.0,56,0.00,,,0.00,TxWx,2014-01-22 03:55:00,
2014-01-21 23:00:00,2.0,-11.0,29.95,ENE,67,8.0,10.0,57,0.00,,,0.00,TxWx,2014-01-22 04:00:00,
2014-01-21 23:05:00,2.0,-11.0,29.95,East,90,5.0,8.0,57,0.00,,,0.00,TxWx,2014-01-22 04:05:00,
2014-01-21 23:10:00,1.0,-12.0,29.94,East,90,15.0,15.0,57,0.00,,,0.00,TxWx,2014-01-22 04:10:00,
2014-01-21 23:15:00,1.0,-11.0,29.94,East,90,8.0,8.0,58,0.00,,,0.00,TxWx,2014-01-22 04:15:00,
2014-01-21 23:21:00,1.0,-11.0,29.93,ENE,67,14.0,19.0,58,0.00,,,0.00,TxWx,2014-01-22 04:21:00,
2014-01-21 23:26:00,1.0,-11.0,29.93,ENE,67,11.0,18.0,58,0.00,,,0.00,TxWx,2014-01-22 04:26:00,
2014-01-21 23:31:00,1.0,-11.0,29.93,ENE,67,12.0,12.0,58,0.00,,,0.00,TxWx,2014-01-22 04:31:00,
2014-01-21 23:36:00,1.0,-11.0,29.93,East,90,19.0,21.0,59,0.00,,,0.00,TxWx,2014-01-22 04:36:00,
2014-01-21 23:41:00,1.0,-11.0,29.93,ENE,67,7.0,9.0,59,0.00,,,0.00,TxWx,2014-01-22 04:41:00,
2014-01-21 23:46:00,1.0,-11.0,29.93,ENE,67,11.0,12.0,59,0.00,,,0.00,TxWx,2014-01-22 04:46:00,
2014-01-21 23:51:00,0.0,-12.0,29.92,East,90,16.0,18.0,60,0.00,,,0.00,TxWx,2014-01-22 04:51:00,
2014-01-21 23:56:00,0.0,-12.0,29.92,ENE,67,10.0,12.0,59,0.00,,,0.00,TxWx,2014-01-22 04:56:00,